sensor_id;sensor_type;location;lat;lon;timestamp;pressure;altitude;pressure_sealevel;temperature;humidity
64211;BME280;50528;48.514;14.394;2022-07-03T00:00:05;94218.55;;;13.72;67.32
64211;BME280;50528;48.514;14.394;2022-07-03T00:01:29;94220.58;;;13.66;67.24
64211;BME280;50528;48.514;14.394;2022-07-03T00:02:32;94221.25;;;13.63;67.39
64211;BME280;50528;48.514;14.394;2022-07-03T00:03:35;94219.45;;;13.63;67.51
64211;BME280;50528;48.514;14.394;2022-07-03T00:04:40;94219.29;;;13.62;67.76
64211;BME280;50528;48.514;14.394;2022-07-03T00:05:44;94218.17;;;13.62;67.66
64211;BME280;50528;48.514;14.394;2022-07-03T00:06:49;94221.50;;;13.62;67.76
64211;BME280;50528;48.514;14.394;2022-07-03T00:07:52;94217.12;;;13.60;68.03
64211;BME280;50528;48.514;14.394;2022-07-03T00:08:57;94215.66;;;13.57;67.93
64211;BME280;50528;48.514;14.394;2022-07-03T00:10:01;94215.02;;;13.52;67.97
64211;BME280;50528;48.514;14.394;2022-07-03T00:11:05;94216.90;;;13.50;67.99
64211;BME280;50528;48.514;14.394;2022-07-03T00:12:09;94217.11;;;13.50;68.18
64211;BME280;50528;48.514;14.394;2022-07-03T00:13:13;94219.48;;;13.49;68.14
64211;BME280;50528;48.514;14.394;2022-07-03T00:14:16;94218.48;;;13.50;68.27
64211;BME280;50528;48.514;14.394;2022-07-03T00:15:19;94218.36;;;13.48;68.35
64211;BME280;50528;48.514;14.394;2022-07-03T00:16:23;94222.64;;;13.47;68.32
64211;BME280;50528;48.514;14.394;2022-07-03T00:17:26;94223.38;;;13.47;68.37
64211;BME280;50528;48.514;14.394;2022-07-03T00:18:29;94219.05;;;13.46;68.44
64211;BME280;50528;48.514;14.394;2022-07-03T00:19:32;94217.45;;;13.46;68.53
64211;BME280;50528;48.514;14.394;2022-07-03T00:20:45;94224.11;;;13.48;68.62
64211;BME280;50528;48.514;14.394;2022-07-03T00:22:03;94216.98;;;13.45;68.59
64211;BME280;50528;48.514;14.394;2022-07-03T00:23:09;94219.75;;;13.42;68.56
64211;BME280;50528;48.514;14.394;2022-07-03T00:24:24;94217.85;;;13.41;68.59
64211;BME280;50528;48.514;14.394;2022-07-03T00:25:28;94219.06;;;13.40;68.64
64211;BME280;50528;48.514;14.394;2022-07-03T00:26:33;94223.59;;;13.40;68.75
64211;BME280;50528;48.514;14.394;2022-07-03T00:27:38;94222.90;;;13.38;68.67
64211;BME280;50528;48.514;14.394;2022-07-03T00:28:43;94220.72;;;13.37;68.74
64211;BME280;50528;48.514;14.394;2022-07-03T00:29:48;94219.19;;;13.35;68.59
64211;BME280;50528;48.514;14.394;2022-07-03T00:30:55;94217.27;;;13.33;68.82
64211;BME280;50528;48.514;14.394;2022-07-03T00:32:00;94216.20;;;13.31;68.73
64211;BME280;50528;48.514;14.394;2022-07-03T00:33:05;94217.84;;;13.30;68.71
64211;BME280;50528;48.514;14.394;2022-07-03T00:34:11;94215.96;;;13.28;68.90
64211;BME280;50528;48.514;14.394;2022-07-03T00:35:17;94213.67;;;13.24;69.03
64211;BME280;50528;48.514;14.394;2022-07-03T00:36:20;94211.52;;;13.21;68.99
64211;BME280;50528;48.514;14.394;2022-07-03T00:37:24;94218.67;;;13.23;69.11
64211;BME280;50528;48.514;14.394;2022-07-03T00:38:27;94216.04;;;13.23;69.18
64211;BME280;50528;48.514;14.394;2022-07-03T00:39:32;94216.77;;;13.23;69.20
64211;BME280;50528;48.514;14.394;2022-07-03T00:40:35;94216.35;;;13.23;69.30
64211;BME280;50528;48.514;14.394;2022-07-03T00:41:38;94217.67;;;13.23;69.34
64211;BME280;50528;48.514;14.394;2022-07-03T00:42:42;94217.89;;;13.23;69.32
64211;BME280;50528;48.514;14.394;2022-07-03T00:43:46;94216.86;;;13.22;69.46
64211;BME280;50528;48.514;14.394;2022-07-03T00:44:51;94213.65;;;13.22;69.47
64211;BME280;50528;48.514;14.394;2022-07-03T00:46:06;94219.20;;;13.23;69.43
64211;BME280;50528;48.514;14.394;2022-07-03T00:47:11;94215.49;;;13.21;69.48
64211;BME280;50528;48.514;14.394;2022-07-03T00:48:16;94217.27;;;13.19;69.36
64211;BME280;50528;48.514;14.394;2022-07-03T00:49:23;94218.32;;;13.18;69.35
64211;BME280;50528;48.514;14.394;2022-07-03T00:50:33;94216.67;;;13.17;69.35
64211;BME280;50528;48.514;14.394;2022-07-03T00:51:39;94216.41;;;13.16;69.28
64211;BME280;50528;48.514;14.394;2022-07-03T00:52:46;94216.13;;;13.15;69.28
64211;BME280;50528;48.514;14.394;2022-07-03T00:53:52;94212.96;;;13.14;69.45
64211;BME280;50528;48.514;14.394;2022-07-03T00:54:58;94213.71;;;13.11;69.44
64211;BME280;50528;48.514;14.394;2022-07-03T00:56:04;94216.16;;;13.09;69.47
64211;BME280;50528;48.514;14.394;2022-07-03T00:57:13;94216.73;;;13.08;69.52
64211;BME280;50528;48.514;14.394;2022-07-03T00:58:17;94215.26;;;13.06;69.70
64211;BME280;50528;48.514;14.394;2022-07-03T00:59:20;94216.77;;;13.05;69.79
64211;BME280;50528;48.514;14.394;2022-07-03T01:00:24;94213.13;;;13.05;69.67
64211;BME280;50528;48.514;14.394;2022-07-03T01:01:34;94216.34;;;13.05;69.77
64211;BME280;50528;48.514;14.394;2022-07-03T01:02:51;94211.84;;;13.02;69.72
64211;BME280;50528;48.514;14.394;2022-07-03T01:05:40;94213.86;;;12.97;70.02
64211;BME280;50528;48.514;14.394;2022-07-03T01:07:02;94213.68;;;12.94;70.03
64211;BME280;50528;48.514;14.394;2022-07-03T01:10:36;94214.95;;;12.94;70.19
64211;BME280;50528;48.514;14.394;2022-07-03T01:11:44;94214.73;;;12.88;70.39
64211;BME280;50528;48.514;14.394;2022-07-03T01:14:01;94215.33;;;12.85;70.63
64211;BME280;50528;48.514;14.394;2022-07-03T01:15:10;94214.91;;;12.78;70.58
64211;BME280;50528;48.514;14.394;2022-07-03T01:17:48;94210.06;;;12.71;70.91
64211;BME280;50528;48.514;14.394;2022-07-03T01:19:13;94210.95;;;12.70;70.92
64211;BME280;50528;48.514;14.394;2022-07-03T01:20:27;94204.48;;;12.69;70.85
64211;BME280;50528;48.514;14.394;2022-07-03T01:21:41;94207.77;;;12.69;70.88
64211;BME280;50528;48.514;14.394;2022-07-03T01:22:48;94200.32;;;12.69;70.92
64211;BME280;50528;48.514;14.394;2022-07-03T01:25:25;94193.95;;;12.70;71.02
64211;BME280;50528;48.514;14.394;2022-07-03T01:26:30;94190.27;;;12.70;70.97
64211;BME280;50528;48.514;14.394;2022-07-03T01:29:25;94186.20;;;12.71;70.92
64211;BME280;50528;48.514;14.394;2022-07-03T01:30:32;94182.73;;;12.71;70.97
64211;BME280;50528;48.514;14.394;2022-07-03T01:31:38;94184.64;;;12.71;71.07
64211;BME280;50528;48.514;14.394;2022-07-03T01:32:49;94183.16;;;12.72;71.06
64211;BME280;50528;48.514;14.394;2022-07-03T01:33:58;94183.42;;;12.73;71.06
64211;BME280;50528;48.514;14.394;2022-07-03T01:35:06;94181.24;;;12.71;71.09
64211;BME280;50528;48.514;14.394;2022-07-03T01:36:13;94182.16;;;12.72;71.06
64211;BME280;50528;48.514;14.394;2022-07-03T01:37:20;94179.47;;;12.72;71.04
64211;BME280;50528;48.514;14.394;2022-07-03T01:38:30;94176.08;;;12.72;71.16
64211;BME280;50528;48.514;14.394;2022-07-03T01:39:35;94175.25;;;12.73;71.02
64211;BME280;50528;48.514;14.394;2022-07-03T01:40:57;94173.04;;;12.73;71.04
64211;BME280;50528;48.514;14.394;2022-07-03T01:42:02;94173.19;;;12.73;71.12
64211;BME280;50528;48.514;14.394;2022-07-03T01:43:08;94170.40;;;12.73;71.10
64211;BME280;50528;48.514;14.394;2022-07-03T01:44:13;94178.48;;;12.74;71.14
64211;BME280;50528;48.514;14.394;2022-07-03T01:45:19;94173.15;;;12.75;71.12
64211;BME280;50528;48.514;14.394;2022-07-03T01:46:28;94178.28;;;12.76;71.08
64211;BME280;50528;48.514;14.394;2022-07-03T01:47:34;94178.39;;;12.76;71.13
64211;BME280;50528;48.514;14.394;2022-07-03T01:48:38;94176.91;;;12.76;71.01
64211;BME280;50528;48.514;14.394;2022-07-03T01:49:45;94178.44;;;12.76;71.09
64211;BME280;50528;48.514;14.394;2022-07-03T01:50:59;94177.21;;;12.75;71.06
64211;BME280;50528;48.514;14.394;2022-07-03T01:52:05;94175.27;;;12.75;71.07
64211;BME280;50528;48.514;14.394;2022-07-03T01:53:30;94175.61;;;12.72;71.17
64211;BME280;50528;48.514;14.394;2022-07-03T01:54:35;94178.73;;;12.72;71.17
64211;BME280;50528;48.514;14.394;2022-07-03T01:55:40;94180.68;;;12.72;71.20
64211;BME280;50528;48.514;14.394;2022-07-03T01:56:44;94179.88;;;12.72;71.29
64211;BME280;50528;48.514;14.394;2022-07-03T01:57:50;94180.89;;;12.72;71.28
64211;BME280;50528;48.514;14.394;2022-07-03T01:58:53;94179.41;;;12.73;71.32
64211;BME280;50528;48.514;14.394;2022-07-03T01:59:59;94181.45;;;12.71;71.38
64211;BME280;50528;48.514;14.394;2022-07-03T02:01:14;94184.00;;;12.72;71.30
64211;BME280;50528;48.514;14.394;2022-07-03T02:02:30;94181.44;;;12.69;71.23
64211;BME280;50528;48.514;14.394;2022-07-03T02:03:39;94184.98;;;12.70;71.32
64211;BME280;50528;48.514;14.394;2022-07-03T02:04:58;94183.98;;;12.69;71.27
64211;BME280;50528;48.514;14.394;2022-07-03T02:06:07;94182.80;;;12.68;71.29
64211;BME280;50528;48.514;14.394;2022-07-03T02:07:44;94185.70;;;12.68;71.23
64211;BME280;50528;48.514;14.394;2022-07-03T02:09:07;94187.70;;;12.65;71.38
64211;BME280;50528;48.514;14.394;2022-07-03T02:10:29;94182.91;;;12.61;71.33
64211;BME280;50528;48.514;14.394;2022-07-03T02:11:35;94179.81;;;12.63;71.32
64211;BME280;50528;48.514;14.394;2022-07-03T02:12:51;94181.37;;;12.65;71.40
64211;BME280;50528;48.514;14.394;2022-07-03T02:14:11;94184.46;;;12.64;71.32
64211;BME280;50528;48.514;14.394;2022-07-03T02:15:30;94184.93;;;12.64;71.31
64211;BME280;50528;48.514;14.394;2022-07-03T02:16:50;94182.23;;;12.66;71.32
64211;BME280;50528;48.514;14.394;2022-07-03T02:17:57;94187.42;;;12.66;71.33
64211;BME280;50528;48.514;14.394;2022-07-03T02:19:05;94185.69;;;12.67;71.43
64211;BME280;50528;48.514;14.394;2022-07-03T02:20:11;94179.98;;;12.65;71.28
64211;BME280;50528;48.514;14.394;2022-07-03T02:21:19;94184.79;;;12.65;71.24
64211;BME280;50528;48.514;14.394;2022-07-03T02:22:34;94182.85;;;12.61;71.29
64211;BME280;50528;48.514;14.394;2022-07-03T02:23:46;94180.98;;;12.58;71.21
64211;BME280;50528;48.514;14.394;2022-07-03T02:24:57;94181.39;;;12.57;71.19
64211;BME280;50528;48.514;14.394;2022-07-03T02:26:04;94180.60;;;12.56;71.24
64211;BME280;50528;48.514;14.394;2022-07-03T02:27:15;94176.69;;;12.56;71.25
64211;BME280;50528;48.514;14.394;2022-07-03T02:28:50;94173.89;;;12.56;71.30
64211;BME280;50528;48.514;14.394;2022-07-03T02:30:03;94171.39;;;12.53;71.22
64211;BME280;50528;48.514;14.394;2022-07-03T02:31:09;94171.13;;;12.53;71.31
64211;BME280;50528;48.514;14.394;2022-07-03T02:32:20;94174.16;;;12.51;71.52
64211;BME280;50528;48.514;14.394;2022-07-03T02:33:29;94176.55;;;12.52;71.48
64211;BME280;50528;48.514;14.394;2022-07-03T02:34:33;94180.70;;;12.51;71.54
64211;BME280;50528;48.514;14.394;2022-07-03T02:35:40;94178.81;;;12.52;71.50
64211;BME280;50528;48.514;14.394;2022-07-03T02:36:46;94180.73;;;12.52;71.38
64211;BME280;50528;48.514;14.394;2022-07-03T02:39:04;94181.55;;;12.51;71.46
64211;BME280;50528;48.514;14.394;2022-07-03T02:40:20;94184.45;;;12.51;71.47
64211;BME280;50528;48.514;14.394;2022-07-03T02:41:36;94181.00;;;12.49;71.52
64211;BME280;50528;48.514;14.394;2022-07-03T02:42:58;94183.58;;;12.48;71.57
64211;BME280;50528;48.514;14.394;2022-07-03T02:44:14;94184.08;;;12.46;71.57
64211;BME280;50528;48.514;14.394;2022-07-03T02:45:22;94183.18;;;12.46;71.61
64211;BME280;50528;48.514;14.394;2022-07-03T02:46:34;94182.90;;;12.47;71.73
64211;BME280;50528;48.514;14.394;2022-07-03T02:48:20;94183.89;;;12.48;71.73
64211;BME280;50528;48.514;14.394;2022-07-03T02:49:43;94184.90;;;12.48;71.73
64211;BME280;50528;48.514;14.394;2022-07-03T02:50:58;94185.69;;;12.48;71.61
64211;BME280;50528;48.514;14.394;2022-07-03T02:52:14;94182.94;;;12.47;71.86
64211;BME280;50528;48.514;14.394;2022-07-03T02:53:30;94181.63;;;12.48;71.86
64211;BME280;50528;48.514;14.394;2022-07-03T02:54:45;94183.48;;;12.48;71.86
64211;BME280;50528;48.514;14.394;2022-07-03T02:55:58;94182.09;;;12.48;71.89
64211;BME280;50528;48.514;14.394;2022-07-03T02:57:07;94177.14;;;12.49;71.87
64211;BME280;50528;48.514;14.394;2022-07-03T02:58:27;94177.16;;;12.50;71.83
64211;BME280;50528;48.514;14.394;2022-07-03T03:01:07;94178.05;;;12.50;71.91
64211;BME280;50528;48.514;14.394;2022-07-03T03:04:09;94183.34;;;12.51;72.03
64211;BME280;50528;48.514;14.394;2022-07-03T03:05:15;94184.98;;;12.52;72.11
64211;BME280;50528;48.514;14.394;2022-07-03T03:06:21;94187.54;;;12.54;72.14
64211;BME280;50528;48.514;14.394;2022-07-03T03:07:37;94182.48;;;12.54;72.09
64211;BME280;50528;48.514;14.394;2022-07-03T03:08:49;94185.69;;;12.54;71.91
64211;BME280;50528;48.514;14.394;2022-07-03T03:09:53;94185.38;;;12.54;71.90
64211;BME280;50528;48.514;14.394;2022-07-03T03:11:12;94186.70;;;12.55;71.94
64211;BME280;50528;48.514;14.394;2022-07-03T03:12:29;94189.08;;;12.54;71.83
64211;BME280;50528;48.514;14.394;2022-07-03T03:13:33;94190.38;;;12.53;71.81
64211;BME280;50528;48.514;14.394;2022-07-03T03:14:42;94194.81;;;12.53;71.96
64211;BME280;50528;48.514;14.394;2022-07-03T03:15:59;94190.70;;;12.53;71.92
64211;BME280;50528;48.514;14.394;2022-07-03T03:17:05;94193.33;;;12.53;71.94
64211;BME280;50528;48.514;14.394;2022-07-03T03:18:11;94194.49;;;12.54;72.12
64211;BME280;50528;48.514;14.394;2022-07-03T03:19:21;94197.62;;;12.54;72.06
64211;BME280;50528;48.514;14.394;2022-07-03T03:20:33;94199.73;;;12.55;72.03
64211;BME280;50528;48.514;14.394;2022-07-03T03:21:46;94198.13;;;12.54;72.21
64211;BME280;50528;48.514;14.394;2022-07-03T03:24:04;94199.09;;;12.54;71.99
64211;BME280;50528;48.514;14.394;2022-07-03T03:25:07;94202.36;;;12.55;72.00
64211;BME280;50528;48.514;14.394;2022-07-03T03:26:11;94198.21;;;12.53;72.05
64211;BME280;50528;48.514;14.394;2022-07-03T03:27:17;94205.52;;;12.55;72.12
64211;BME280;50528;48.514;14.394;2022-07-03T03:28:20;94201.35;;;12.55;72.18
64211;BME280;50528;48.514;14.394;2022-07-03T03:29:24;94204.56;;;12.55;72.08
64211;BME280;50528;48.514;14.394;2022-07-03T03:30:28;94203.67;;;12.56;72.20
64211;BME280;50528;48.514;14.394;2022-07-03T03:31:32;94205.11;;;12.56;72.11
64211;BME280;50528;48.514;14.394;2022-07-03T03:32:36;94206.12;;;12.57;72.01
64211;BME280;50528;48.514;14.394;2022-07-03T03:33:45;94208.59;;;12.57;72.13
64211;BME280;50528;48.514;14.394;2022-07-03T03:34:49;94210.54;;;12.56;72.22
64211;BME280;50528;48.514;14.394;2022-07-03T03:35:53;94209.79;;;12.55;72.01
64211;BME280;50528;48.514;14.394;2022-07-03T03:36:56;94214.86;;;12.56;72.14
64211;BME280;50528;48.514;14.394;2022-07-03T03:37:59;94213.55;;;12.56;72.19
64211;BME280;50528;48.514;14.394;2022-07-03T03:39:03;94213.24;;;12.58;72.17
64211;BME280;50528;48.514;14.394;2022-07-03T03:40:06;94214.41;;;12.58;72.16
64211;BME280;50528;48.514;14.394;2022-07-03T03:41:10;94213.00;;;12.59;72.21
64211;BME280;50528;48.514;14.394;2022-07-03T03:42:19;94213.48;;;12.59;72.32
64211;BME280;50528;48.514;14.394;2022-07-03T03:43:22;94212.48;;;12.60;72.24
64211;BME280;50528;48.514;14.394;2022-07-03T03:44:25;94215.17;;;12.62;72.24
64211;BME280;50528;48.514;14.394;2022-07-03T03:45:28;94215.98;;;12.62;72.27
64211;BME280;50528;48.514;14.394;2022-07-03T03:46:32;94217.48;;;12.64;72.32
64211;BME280;50528;48.514;14.394;2022-07-03T03:47:35;94218.96;;;12.64;72.27
64211;BME280;50528;48.514;14.394;2022-07-03T03:48:38;94221.76;;;12.64;72.27
64211;BME280;50528;48.514;14.394;2022-07-03T03:49:42;94220.91;;;12.65;72.28
64211;BME280;50528;48.514;14.394;2022-07-03T03:50:45;94224.03;;;12.66;72.26
64211;BME280;50528;48.514;14.394;2022-07-03T03:51:49;94221.17;;;12.66;72.38
64211;BME280;50528;48.514;14.394;2022-07-03T03:52:55;94225.55;;;12.66;72.38
64211;BME280;50528;48.514;14.394;2022-07-03T03:53:58;94223.14;;;12.66;72.47
64211;BME280;50528;48.514;14.394;2022-07-03T03:55:01;94222.25;;;12.67;72.54
64211;BME280;50528;48.514;14.394;2022-07-03T03:56:09;94225.84;;;12.68;72.59
64211;BME280;50528;48.514;14.394;2022-07-03T03:57:21;94228.02;;;12.69;72.68
64211;BME280;50528;48.514;14.394;2022-07-03T03:58:24;94227.56;;;12.70;72.71
64211;BME280;50528;48.514;14.394;2022-07-03T03:59:28;94228.73;;;12.71;72.80
64211;BME280;50528;48.514;14.394;2022-07-03T04:00:31;94229.94;;;12.72;72.84
64211;BME280;50528;48.514;14.394;2022-07-03T04:01:34;94228.43;;;12.74;72.81
64211;BME280;50528;48.514;14.394;2022-07-03T04:02:38;94229.01;;;12.74;72.88
64211;BME280;50528;48.514;14.394;2022-07-03T04:03:41;94231.48;;;12.77;72.89
64211;BME280;50528;48.514;14.394;2022-07-03T04:04:45;94228.62;;;12.79;72.86
64211;BME280;50528;48.514;14.394;2022-07-03T04:05:48;94231.98;;;12.81;72.95
64211;BME280;50528;48.514;14.394;2022-07-03T04:06:51;94229.66;;;12.82;72.94
64211;BME280;50528;48.514;14.394;2022-07-03T04:07:56;94230.84;;;12.85;72.88
64211;BME280;50528;48.514;14.394;2022-07-03T04:09:02;94230.18;;;12.87;72.92
64211;BME280;50528;48.514;14.394;2022-07-03T04:10:06;94231.42;;;12.88;72.99
64211;BME280;50528;48.514;14.394;2022-07-03T04:11:09;94233.85;;;12.91;73.04
64211;BME280;50528;48.514;14.394;2022-07-03T04:12:12;94235.25;;;12.94;72.97
64211;BME280;50528;48.514;14.394;2022-07-03T04:13:16;94239.33;;;12.96;72.96
64211;BME280;50528;48.514;14.394;2022-07-03T04:14:19;94237.82;;;12.98;73.04
64211;BME280;50528;48.514;14.394;2022-07-03T04:15:23;94237.00;;;13.00;73.01
64211;BME280;50528;48.514;14.394;2022-07-03T04:16:26;94238.85;;;13.02;73.04
64211;BME280;50528;48.514;14.394;2022-07-03T04:17:30;94234.91;;;13.04;73.17
64211;BME280;50528;48.514;14.394;2022-07-03T04:18:33;94241.00;;;13.06;73.19
64211;BME280;50528;48.514;14.394;2022-07-03T04:19:37;94240.05;;;13.08;73.24
64211;BME280;50528;48.514;14.394;2022-07-03T04:20:41;94240.55;;;13.10;73.32
64211;BME280;50528;48.514;14.394;2022-07-03T04:21:44;94239.77;;;13.13;73.32
64211;BME280;50528;48.514;14.394;2022-07-03T04:22:47;94230.86;;;13.15;73.51
64211;BME280;50528;48.514;14.394;2022-07-03T04:23:53;94234.80;;;13.19;73.47
64211;BME280;50528;48.514;14.394;2022-07-03T04:24:56;94235.04;;;13.23;73.47
64211;BME280;50528;48.514;14.394;2022-07-03T04:26:03;94235.59;;;13.27;73.54
64211;BME280;50528;48.514;14.394;2022-07-03T04:27:06;94234.30;;;13.31;73.57
64211;BME280;50528;48.514;14.394;2022-07-03T04:28:10;94233.17;;;13.35;73.61
64211;BME280;50528;48.514;14.394;2022-07-03T04:29:21;94237.59;;;13.40;73.64
64211;BME280;50528;48.514;14.394;2022-07-03T04:30:24;94234.40;;;13.44;73.65
64211;BME280;50528;48.514;14.394;2022-07-03T04:31:28;94234.54;;;13.49;73.57
64211;BME280;50528;48.514;14.394;2022-07-03T04:32:31;94234.51;;;13.53;73.81
64211;BME280;50528;48.514;14.394;2022-07-03T04:33:34;94238.45;;;13.59;73.79
64211;BME280;50528;48.514;14.394;2022-07-03T04:34:37;94240.11;;;13.63;73.89
64211;BME280;50528;48.514;14.394;2022-07-03T04:35:40;94239.02;;;13.67;73.95
64211;BME280;50528;48.514;14.394;2022-07-03T04:36:44;94239.16;;;13.73;73.93
64211;BME280;50528;48.514;14.394;2022-07-03T04:37:47;94240.02;;;13.78;74.14
64211;BME280;50528;48.514;14.394;2022-07-03T04:38:50;94241.02;;;13.85;74.24
64211;BME280;50528;48.514;14.394;2022-07-03T04:39:53;94238.77;;;13.91;74.27
64211;BME280;50528;48.514;14.394;2022-07-03T04:40:56;94241.13;;;13.98;74.40
64211;BME280;50528;48.514;14.394;2022-07-03T04:41:59;94242.00;;;14.04;74.53
64211;BME280;50528;48.514;14.394;2022-07-03T04:43:02;94240.98;;;14.10;74.52
64211;BME280;50528;48.514;14.394;2022-07-03T04:44:05;94243.23;;;14.16;74.72
64211;BME280;50528;48.514;14.394;2022-07-03T04:45:09;94243.52;;;14.23;74.86
64211;BME280;50528;48.514;14.394;2022-07-03T04:46:12;94243.59;;;14.28;74.94
64211;BME280;50528;48.514;14.394;2022-07-03T04:47:15;94242.44;;;14.34;74.84
64211;BME280;50528;48.514;14.394;2022-07-03T04:48:19;94245.02;;;14.40;74.75
64211;BME280;50528;48.514;14.394;2022-07-03T04:49:22;94244.98;;;14.46;74.55
64211;BME280;50528;48.514;14.394;2022-07-03T04:50:25;94241.67;;;14.49;74.50
64211;BME280;50528;48.514;14.394;2022-07-03T04:51:28;94248.98;;;14.56;74.45
64211;BME280;50528;48.514;14.394;2022-07-03T04:52:32;94248.79;;;14.62;74.55
64211;BME280;50528;48.514;14.394;2022-07-03T04:53:35;94249.70;;;14.67;74.36
64211;BME280;50528;48.514;14.394;2022-07-03T04:54:39;94248.80;;;14.72;74.28
64211;BME280;50528;48.514;14.394;2022-07-03T04:55:42;94248.67;;;14.78;74.13
64211;BME280;50528;48.514;14.394;2022-07-03T04:56:45;94248.89;;;14.82;74.12
64211;BME280;50528;48.514;14.394;2022-07-03T04:57:49;94251.64;;;14.88;74.06
64211;BME280;50528;48.514;14.394;2022-07-03T04:58:52;94249.05;;;14.92;74.05
64211;BME280;50528;48.514;14.394;2022-07-03T04:59:56;94252.66;;;14.97;74.19
64211;BME280;50528;48.514;14.394;2022-07-03T05:00:59;94253.14;;;15.02;74.21
64211;BME280;50528;48.514;14.394;2022-07-03T05:02:02;94251.34;;;15.07;74.22
64211;BME280;50528;48.514;14.394;2022-07-03T05:03:06;94251.35;;;15.13;74.16
64211;BME280;50528;48.514;14.394;2022-07-03T05:04:10;94249.03;;;15.17;74.22
64211;BME280;50528;48.514;14.394;2022-07-03T05:05:13;94255.27;;;15.24;74.19
64211;BME280;50528;48.514;14.394;2022-07-03T05:06:16;94253.63;;;15.29;74.12
64211;BME280;50528;48.514;14.394;2022-07-03T05:07:22;94256.11;;;15.34;74.11
64211;BME280;50528;48.514;14.394;2022-07-03T05:08:25;94255.25;;;15.39;74.00
64211;BME280;50528;48.514;14.394;2022-07-03T05:09:28;94252.66;;;15.44;73.84
64211;BME280;50528;48.514;14.394;2022-07-03T05:10:31;94253.52;;;15.48;73.70
64211;BME280;50528;48.514;14.394;2022-07-03T05:11:34;94253.52;;;15.52;73.66
64211;BME280;50528;48.514;14.394;2022-07-03T05:12:38;94254.42;;;15.56;73.52
64211;BME280;50528;48.514;14.394;2022-07-03T05:13:43;94249.55;;;15.60;73.34
64211;BME280;50528;48.514;14.394;2022-07-03T05:14:46;94252.02;;;15.64;73.19
64211;BME280;50528;48.514;14.394;2022-07-03T05:15:49;94252.34;;;15.68;73.24
64211;BME280;50528;48.514;14.394;2022-07-03T05:16:52;94259.14;;;15.71;72.95
64211;BME280;50528;48.514;14.394;2022-07-03T05:17:56;94254.61;;;15.74;73.01
64211;BME280;50528;48.514;14.394;2022-07-03T05:18:59;94254.08;;;15.77;73.03
64211;BME280;50528;48.514;14.394;2022-07-03T05:20:03;94252.16;;;15.83;73.16
64211;BME280;50528;48.514;14.394;2022-07-03T05:21:25;94256.92;;;15.89;72.91
64211;BME280;50528;48.514;14.394;2022-07-03T05:22:29;94257.48;;;15.93;72.92
64211;BME280;50528;48.514;14.394;2022-07-03T05:23:32;94255.61;;;15.97;72.78
64211;BME280;50528;48.514;14.394;2022-07-03T05:24:35;94255.55;;;16.02;72.74
64211;BME280;50528;48.514;14.394;2022-07-03T05:25:38;94253.36;;;16.07;72.83
64211;BME280;50528;48.514;14.394;2022-07-03T05:26:41;94249.74;;;16.12;72.80
64211;BME280;50528;48.514;14.394;2022-07-03T05:27:45;94254.39;;;16.17;72.65
64211;BME280;50528;48.514;14.394;2022-07-03T05:28:48;94254.52;;;16.22;72.46
64211;BME280;50528;48.514;14.394;2022-07-03T05:29:51;94257.05;;;16.27;72.53
64211;BME280;50528;48.514;14.394;2022-07-03T05:30:54;94257.20;;;16.31;72.67
64211;BME280;50528;48.514;14.394;2022-07-03T05:31:57;94257.94;;;16.36;72.48
64211;BME280;50528;48.514;14.394;2022-07-03T05:33:02;94259.55;;;16.40;72.47
64211;BME280;50528;48.514;14.394;2022-07-03T05:34:05;94256.37;;;16.41;72.51
64211;BME280;50528;48.514;14.394;2022-07-03T05:35:08;94258.40;;;16.46;72.58
64211;BME280;50528;48.514;14.394;2022-07-03T05:36:12;94258.46;;;16.47;72.53
64211;BME280;50528;48.514;14.394;2022-07-03T05:37:15;94258.91;;;16.50;72.51
64211;BME280;50528;48.514;14.394;2022-07-03T05:38:18;94263.42;;;16.54;72.37
64211;BME280;50528;48.514;14.394;2022-07-03T05:39:41;94258.36;;;16.55;72.08
64211;BME280;50528;48.514;14.394;2022-07-03T05:40:45;94259.53;;;16.60;72.05
64211;BME280;50528;48.514;14.394;2022-07-03T05:41:48;94259.73;;;16.63;71.94
64211;BME280;50528;48.514;14.394;2022-07-03T05:42:51;94264.48;;;16.67;71.99
64211;BME280;50528;48.514;14.394;2022-07-03T05:43:57;94266.96;;;16.72;71.83
64211;BME280;50528;48.514;14.394;2022-07-03T05:45:00;94269.60;;;16.75;71.91
64211;BME280;50528;48.514;14.394;2022-07-03T05:46:06;94269.20;;;16.80;71.86
64211;BME280;50528;48.514;14.394;2022-07-03T05:47:10;94269.93;;;16.82;71.89
64211;BME280;50528;48.514;14.394;2022-07-03T05:48:13;94275.09;;;16.87;71.83
64211;BME280;50528;48.514;14.394;2022-07-03T05:49:19;94272.25;;;16.91;71.71
64211;BME280;50528;48.514;14.394;2022-07-03T05:50:22;94273.89;;;16.95;71.66
64211;BME280;50528;48.514;14.394;2022-07-03T05:51:25;94268.02;;;16.98;71.50
64211;BME280;50528;48.514;14.394;2022-07-03T05:52:28;94265.58;;;17.01;71.53
64211;BME280;50528;48.514;14.394;2022-07-03T05:53:31;94266.02;;;17.03;71.63
64211;BME280;50528;48.514;14.394;2022-07-03T05:54:35;94265.52;;;17.08;71.59
64211;BME280;50528;48.514;14.394;2022-07-03T05:55:40;94265.54;;;17.13;71.68
64211;BME280;50528;48.514;14.394;2022-07-03T05:56:43;94265.34;;;17.17;71.58
64211;BME280;50528;48.514;14.394;2022-07-03T05:57:46;94264.88;;;17.21;71.76
64211;BME280;50528;48.514;14.394;2022-07-03T05:58:49;94265.38;;;17.26;71.62
64211;BME280;50528;48.514;14.394;2022-07-03T05:59:55;94266.16;;;17.31;71.46
64211;BME280;50528;48.514;14.394;2022-07-03T06:00:58;94263.61;;;17.36;71.26
64211;BME280;50528;48.514;14.394;2022-07-03T06:02:02;94264.63;;;17.40;71.12
64211;BME280;50528;48.514;14.394;2022-07-03T06:03:05;94268.05;;;17.44;71.13
64211;BME280;50528;48.514;14.394;2022-07-03T06:04:09;94268.56;;;17.48;71.04
64211;BME280;50528;48.514;14.394;2022-07-03T06:05:12;94269.85;;;17.52;71.05